createdAt,value
2017-10-30T00:00:51.273Z,0.00
2017-10-30T00:01:51.267Z,0.00
2017-10-30T00:02:51.262Z,0.00
2017-10-30T00:03:51.255Z,0.00
2017-10-30T00:04:51.251Z,0.00
2017-10-30T00:05:51.245Z,0.00
2017-10-30T00:06:51.240Z,0.00
2017-10-30T00:07:51.233Z,0.00
2017-10-30T00:08:51.226Z,0.00
2017-10-30T00:09:51.221Z,0.00
2017-10-30T00:10:51.217Z,0.00
2017-10-30T00:11:51.212Z,0.00
2017-10-30T00:12:51.205Z,0.00
2017-10-30T00:13:51.200Z,0.00
2017-10-30T00:14:51.193Z,0.00
2017-10-30T00:15:51.187Z,0.00
2017-10-30T00:16:51.182Z,0.00
2017-10-30T00:17:51.176Z,0.00
2017-10-30T00:18:51.168Z,0.00
2017-10-30T00:19:51.165Z,0.00
2017-10-30T00:20:51.158Z,0.00
2017-10-30T00:21:51.152Z,0.00
2017-10-30T00:22:51.147Z,0.00
2017-10-30T00:23:51.141Z,0.00
2017-10-30T00:24:51.133Z,0.00
2017-10-30T00:25:51.129Z,0.00
2017-10-30T00:26:51.123Z,0.00
2017-10-30T00:27:51.117Z,0.00
2017-10-30T00:28:51.113Z,0.00
2017-10-30T00:29:51.107Z,0.00
2017-10-30T00:30:51.100Z,0.00
2017-10-30T00:31:51.105Z,0.00
2017-10-30T00:32:51.088Z,0.00
2017-10-30T00:33:51.082Z,0.00
2017-10-30T00:34:51.077Z,0.00
2017-10-30T00:35:51.072Z,0.00
2017-10-30T00:36:51.065Z,0.00
2017-10-30T00:37:51.058Z,0.00
2017-10-30T00:38:51.054Z,0.00
2017-10-30T00:39:51.048Z,0.00
2017-10-30T00:40:51.048Z,0.00
2017-10-30T00:41:51.037Z,0.00
2017-10-30T00:42:51.030Z,0.00
2017-10-30T00:43:51.026Z,0.00
2017-10-30T00:44:51.021Z,0.00
2017-10-30T00:45:51.016Z,0.00
2017-10-30T00:46:51.009Z,0.00
2017-10-30T00:47:51.005Z,0.00
2017-10-30T00:48:50.995Z,0.00
2017-10-30T00:49:50.988Z,0.00
2017-10-30T00:50:50.983Z,0.00
2017-10-30T00:51:50.979Z,0.00
2017-10-30T00:52:50.971Z,0.00
2017-10-30T00:53:50.966Z,0.00
2017-10-30T00:54:50.960Z,0.00
2017-10-30T00:55:50.954Z,0.00
2017-10-30T00:56:50.947Z,0.00
2017-10-30T00:57:50.942Z,0.00
2017-10-30T00:58:50.936Z,0.00
2017-10-30T00:59:50.929Z,0.00
2017-10-30T01:00:50.931Z,0.00
2017-10-30T01:01:50.918Z,0.00
2017-10-30T01:02:50.913Z,0.00
2017-10-30T01:03:50.907Z,0.00
2017-10-30T01:04:50.921Z,0.00
2017-10-30T01:05:50.895Z,0.00
2017-10-30T01:06:50.896Z,0.00
2017-10-30T01:07:50.886Z,0.00
2017-10-30T01:08:50.878Z,0.00
2017-10-30T01:09:50.870Z,0.00
2017-10-30T01:10:50.866Z,0.00
2017-10-30T01:11:50.860Z,0.00
2017-10-30T01:12:50.853Z,0.00
2017-10-30T01:13:50.846Z,0.00
2017-10-30T01:14:50.846Z,0.00
2017-10-30T01:15:50.836Z,0.00
2017-10-30T01:16:50.828Z,0.00
2017-10-30T01:17:50.822Z,0.00
2017-10-30T01:18:50.818Z,0.00
2017-10-30T01:19:50.811Z,0.00
2017-10-30T01:20:50.804Z,0.00
2017-10-30T01:21:50.799Z,0.00
2017-10-30T01:22:50.794Z,0.00
2017-10-30T01:23:50.788Z,0.00
2017-10-30T01:24:50.781Z,0.00
2017-10-30T01:25:50.776Z,0.00
2017-10-30T01:26:50.770Z,0.00
2017-10-30T01:27:50.770Z,0.00
2017-10-30T01:28:50.758Z,0.00
2017-10-30T01:29:50.750Z,0.00
2017-10-30T01:30:50.746Z,0.00
2017-10-30T01:31:50.741Z,0.00
2017-10-30T01:32:50.733Z,0.00
2017-10-30T01:33:50.729Z,0.00
2017-10-30T01:34:50.722Z,0.00
2017-10-30T01:35:50.716Z,0.00
2017-10-30T01:36:50.709Z,0.00
2017-10-30T01:37:50.703Z,0.00
2017-10-30T01:38:50.697Z,0.00
2017-10-30T01:39:50.692Z,0.00
2017-10-30T01:40:50.686Z,0.00
2017-10-30T01:41:50.679Z,0.00
2017-10-30T01:42:50.673Z,0.00
2017-10-30T01:43:50.667Z,0.00
2017-10-30T01:44:50.662Z,0.00
2017-10-30T01:45:50.656Z,0.00
2017-10-30T01:46:50.649Z,0.00
2017-10-30T01:47:50.645Z,0.00
2017-10-30T01:48:50.638Z,0.00
2017-10-30T01:49:50.631Z,0.00
2017-10-30T01:50:50.626Z,0.00
2017-10-30T01:51:50.620Z,0.00
2017-10-30T01:52:50.613Z,0.00
2017-10-30T01:53:50.607Z,0.00
2017-10-30T01:54:50.602Z,0.00
2017-10-30T01:55:50.596Z,0.00
2017-10-30T01:56:50.589Z,0.00
2017-10-30T01:57:50.583Z,0.00
2017-10-30T01:58:50.577Z,0.00
2017-10-30T01:59:50.573Z,0.00
2017-10-30T02:00:50.565Z,0.00
2017-10-30T02:01:50.559Z,0.00
2017-10-30T02:02:50.553Z,0.00
2017-10-30T02:03:50.546Z,0.00
2017-10-30T02:04:50.540Z,0.00
2017-10-30T02:05:50.533Z,0.00
2017-10-30T02:06:50.531Z,0.00
2017-10-30T02:07:50.521Z,0.00
2017-10-30T02:08:50.515Z,0.00
2017-10-30T02:09:50.509Z,0.00
2017-10-30T02:10:50.503Z,0.00
2017-10-30T02:11:50.499Z,0.00
2017-10-30T02:12:50.491Z,0.00
2017-10-30T02:13:50.485Z,0.00
2017-10-30T02:14:50.499Z,0.00
2017-10-30T02:15:50.473Z,0.00
2017-10-30T02:16:50.466Z,0.00
2017-10-30T02:17:50.462Z,0.00
2017-10-30T02:18:50.455Z,0.00
2017-10-30T02:19:50.448Z,0.00
2017-10-30T02:20:50.440Z,0.00
2017-10-30T02:21:50.436Z,0.00
2017-10-30T02:22:50.455Z,0.00
2017-10-30T02:23:50.423Z,0.00
2017-10-30T02:24:50.417Z,0.00
2017-10-30T02:25:50.413Z,0.00
2017-10-30T02:26:50.405Z,0.00
2017-10-30T02:27:50.399Z,0.00
2017-10-30T02:28:50.393Z,0.00
2017-10-30T02:29:50.386Z,0.00
2017-10-30T02:30:50.379Z,0.00
2017-10-30T02:31:50.375Z,0.00
2017-10-30T02:32:50.366Z,0.00
2017-10-30T02:33:50.360Z,0.00
2017-10-30T02:34:50.354Z,0.00
2017-10-30T02:35:50.347Z,0.00
2017-10-30T02:36:50.342Z,0.00
2017-10-30T02:37:50.336Z,0.00
2017-10-30T02:38:50.329Z,0.00
2017-10-30T02:39:50.322Z,0.00
2017-10-30T02:40:50.318Z,0.00
2017-10-30T02:41:50.310Z,0.00
2017-10-30T02:42:50.304Z,0.00
2017-10-30T02:43:50.299Z,0.00
2017-10-30T02:44:50.292Z,0.00
2017-10-30T02:45:50.284Z,0.00
2017-10-30T02:46:50.279Z,0.00
2017-10-30T02:47:50.272Z,0.00
2017-10-30T02:48:50.265Z,0.00
2017-10-30T02:49:50.259Z,0.00
2017-10-30T02:50:50.253Z,0.00
2017-10-30T02:51:50.247Z,0.00
2017-10-30T02:52:50.241Z,0.00
2017-10-30T02:53:50.234Z,0.00
2017-10-30T02:54:50.229Z,0.00
2017-10-30T02:55:50.222Z,0.00
2017-10-30T02:56:50.215Z,0.00
2017-10-30T02:57:50.208Z,0.00
2017-10-30T02:58:50.203Z,0.00
2017-10-30T02:59:50.197Z,0.00
2017-10-30T03:00:50.190Z,0.00
2017-10-30T03:01:50.184Z,0.00
2017-10-30T03:02:50.187Z,0.00
2017-10-30T03:03:50.172Z,0.00
2017-10-30T03:04:50.166Z,0.00
2017-10-30T03:05:50.159Z,0.00
2017-10-30T03:06:50.153Z,0.00
2017-10-30T03:07:50.153Z,0.00
2017-10-30T03:08:50.140Z,0.00
2017-10-30T03:09:50.133Z,0.00
2017-10-30T03:10:50.128Z,0.00
2017-10-30T03:11:50.122Z,0.00
2017-10-30T03:12:50.113Z,0.00
2017-10-30T03:13:50.109Z,0.00
2017-10-30T03:14:50.102Z,0.00
2017-10-30T03:15:50.096Z,0.00
2017-10-30T03:16:50.089Z,0.00
2017-10-30T03:17:50.083Z,0.00
2017-10-30T03:18:50.077Z,0.00
2017-10-30T03:19:50.070Z,0.00
2017-10-30T03:20:50.063Z,0.00
2017-10-30T03:21:50.057Z,0.00
2017-10-30T03:22:50.050Z,0.00
2017-10-30T03:23:50.045Z,0.00
2017-10-30T03:24:50.039Z,0.00
2017-10-30T03:25:50.039Z,0.00
2017-10-30T03:26:50.026Z,0.00
2017-10-30T03:27:50.020Z,0.00
2017-10-30T03:28:50.014Z,0.00
2017-10-30T03:29:50.008Z,0.00
2017-10-30T03:30:50.002Z,0.00
2017-10-30T03:31:50.003Z,0.00
2017-10-30T03:32:49.989Z,0.00
2017-10-30T03:33:49.982Z,0.00
2017-10-30T03:34:49.977Z,0.00
2017-10-30T03:35:49.969Z,0.00
2017-10-30T03:36:49.964Z,0.00
2017-10-30T03:37:49.958Z,0.00
2017-10-30T03:38:49.950Z,0.00
2017-10-30T03:39:49.945Z,0.00
2017-10-30T03:40:49.939Z,0.00
2017-10-30T03:41:49.932Z,0.00
2017-10-30T03:42:49.926Z,0.00
2017-10-30T03:43:49.920Z,0.00
2017-10-30T03:44:49.912Z,0.00
2017-10-30T03:45:49.908Z,0.00
2017-10-30T03:46:49.901Z,0.00
2017-10-30T03:47:49.894Z,0.00
2017-10-30T03:48:49.887Z,0.00
2017-10-30T03:49:49.882Z,0.00
2017-10-30T03:50:49.875Z,0.00
2017-10-30T03:51:49.868Z,0.00
2017-10-30T03:52:49.863Z,0.00
2017-10-30T03:53:49.857Z,0.00
2017-10-30T03:54:49.851Z,0.00
2017-10-30T03:55:49.843Z,0.00
2017-10-30T03:56:49.838Z,0.00
2017-10-30T03:57:49.830Z,0.00
2017-10-30T03:58:49.828Z,0.00
2017-10-30T03:59:49.819Z,0.00
2017-10-30T04:00:49.811Z,0.00
2017-10-30T04:01:49.806Z,0.00
2017-10-30T04:02:49.802Z,0.00
2017-10-30T04:03:49.793Z,0.00
2017-10-30T04:04:49.790Z,0.00
2017-10-30T04:05:49.780Z,0.00
2017-10-30T04:06:49.776Z,0.00
2017-10-30T04:07:49.767Z,0.00
2017-10-30T04:08:49.761Z,0.00
2017-10-30T04:09:49.754Z,0.00
2017-10-30T04:10:49.748Z,0.00
2017-10-30T04:11:49.743Z,0.00
2017-10-30T04:12:49.735Z,0.00
2017-10-30T04:13:49.729Z,0.00
2017-10-30T04:14:49.723Z,0.00
2017-10-30T04:15:49.718Z,0.00
2017-10-30T04:16:49.709Z,0.00
2017-10-30T04:17:49.703Z,0.00
2017-10-30T04:18:49.698Z,0.00
2017-10-30T04:19:49.690Z,0.00
2017-10-30T04:20:49.684Z,0.00
2017-10-30T04:21:49.678Z,0.00
2017-10-30T04:22:49.672Z,0.00
2017-10-30T04:23:49.665Z,0.00
2017-10-30T04:24:49.659Z,0.00
2017-10-30T04:25:49.653Z,0.00
2017-10-30T04:26:49.647Z,0.00
2017-10-30T04:27:49.640Z,0.00
2017-10-30T04:28:49.634Z,0.00
2017-10-30T04:29:49.627Z,0.00
2017-10-30T04:30:49.621Z,0.00
2017-10-30T04:31:49.616Z,0.00
2017-10-30T04:32:49.607Z,0.00
2017-10-30T04:33:49.601Z,0.00
2017-10-30T04:34:49.598Z,0.00
2017-10-30T04:35:49.588Z,0.00
2017-10-30T04:36:49.583Z,0.00
2017-10-30T04:37:49.576Z,0.00
2017-10-30T04:38:49.570Z,0.00
2017-10-30T04:39:49.563Z,0.00
2017-10-30T04:40:49.557Z,0.00
2017-10-30T04:41:49.551Z,0.00
2017-10-30T04:42:49.544Z,0.00
2017-10-30T04:43:49.538Z,0.00
2017-10-30T04:44:49.533Z,0.00
2017-10-30T04:45:49.525Z,0.00
2017-10-30T04:46:49.519Z,0.00
2017-10-30T04:47:49.512Z,0.00
2017-10-30T04:48:49.506Z,0.00
2017-10-30T04:49:49.499Z,0.00
2017-10-30T04:50:49.494Z,0.00
2017-10-30T04:51:49.488Z,0.00
2017-10-30T04:52:49.480Z,0.00
2017-10-30T04:53:49.473Z,0.00
2017-10-30T04:54:49.467Z,0.00
2017-10-30T04:55:49.463Z,0.00
2017-10-30T04:56:49.454Z,0.00
2017-10-30T04:57:49.450Z,0.00
2017-10-30T04:58:49.442Z,0.00
2017-10-30T04:59:49.437Z,0.00
2017-10-30T05:00:49.430Z,0.00
2017-10-30T05:01:49.423Z,0.00
2017-10-30T05:02:49.418Z,0.00
2017-10-30T05:03:49.411Z,0.00
2017-10-30T05:04:49.406Z,0.00
2017-10-30T05:05:49.398Z,0.00
2017-10-30T05:06:49.394Z,0.00
2017-10-30T05:07:49.388Z,0.00
2017-10-30T05:08:49.381Z,0.00
2017-10-30T05:09:49.373Z,0.00
2017-10-30T05:10:49.368Z,0.00
2017-10-30T05:11:49.362Z,0.00
2017-10-30T05:12:49.355Z,0.00
2017-10-30T05:13:49.348Z,0.00
2017-10-30T05:14:49.344Z,0.00
2017-10-30T05:15:49.336Z,0.00
2017-10-30T05:16:49.332Z,0.00
2017-10-30T05:17:49.324Z,0.00
2017-10-30T05:18:49.323Z,0.00
2017-10-30T05:19:49.311Z,0.00
2017-10-30T05:20:49.304Z,0.00
2017-10-30T05:21:49.298Z,0.00
2017-10-30T05:22:49.293Z,0.00
2017-10-30T05:23:49.286Z,0.00
2017-10-30T05:24:49.279Z,0.00
2017-10-30T05:25:49.277Z,0.00
2017-10-30T05:26:49.267Z,0.00
2017-10-30T05:27:49.261Z,0.00
2017-10-30T05:28:49.254Z,0.00
2017-10-30T05:29:49.248Z,0.00
2017-10-30T05:30:49.242Z,0.00
2017-10-30T05:31:49.240Z,0.00
2017-10-30T05:32:49.229Z,0.00
2017-10-30T05:33:49.222Z,0.00
2017-10-30T05:34:49.216Z,0.00
2017-10-30T05:35:49.210Z,0.00
2017-10-30T05:36:49.203Z,0.00
2017-10-30T05:37:49.196Z,0.00
2017-10-30T05:38:49.191Z,0.00
2017-10-30T05:39:49.184Z,0.00
2017-10-30T05:40:49.179Z,0.00
2017-10-30T05:41:49.171Z,0.00
2017-10-30T05:42:49.167Z,0.00
2017-10-30T05:43:49.160Z,0.00
2017-10-30T05:44:49.153Z,0.00
2017-10-30T05:45:49.147Z,0.00
2017-10-30T05:46:49.141Z,0.00
2017-10-30T05:47:49.135Z,0.00
2017-10-30T05:48:49.157Z,4.00
2017-10-30T05:49:49.121Z,4.00
2017-10-30T05:50:49.115Z,0.00
2017-10-30T05:51:49.109Z,4.00
2017-10-30T05:52:49.104Z,4.00
2017-10-30T05:53:49.098Z,4.00
2017-10-30T05:54:49.091Z,4.00
2017-10-30T05:55:49.086Z,4.00
2017-10-30T05:56:49.079Z,4.00
2017-10-30T05:57:49.072Z,8.00
2017-10-30T05:58:49.067Z,8.00
2017-10-30T05:59:49.061Z,8.00
2017-10-30T06:00:49.054Z,12.00
2017-10-30T06:01:49.048Z,12.00
2017-10-30T06:02:49.043Z,16.00
2017-10-30T06:03:49.035Z,20.00
2017-10-30T06:04:49.029Z,24.00
2017-10-30T06:05:49.022Z,24.00
2017-10-30T06:06:49.018Z,32.00
2017-10-30T06:07:49.011Z,36.00
2017-10-30T06:08:49.003Z,36.00
2017-10-30T06:09:48.997Z,44.00
2017-10-30T06:10:48.992Z,52.00
2017-10-30T06:11:48.985Z,56.00
2017-10-30T06:12:48.977Z,68.00
2017-10-30T06:13:48.972Z,72.00
2017-10-30T06:14:48.965Z,80.00
2017-10-30T06:15:48.959Z,88.00
2017-10-30T06:16:48.953Z,96.00
2017-10-30T06:17:48.946Z,100.00
2017-10-30T06:18:48.940Z,112.00
2017-10-30T06:19:48.935Z,116.00
2017-10-30T06:20:48.927Z,128.00
2017-10-30T06:21:48.921Z,140.00
2017-10-30T06:22:48.915Z,152.00
2017-10-30T06:23:48.912Z,160.00
2017-10-30T06:24:48.903Z,164.00
2017-10-30T06:25:48.896Z,168.00
2017-10-30T06:26:48.891Z,172.00
2017-10-30T06:27:48.887Z,172.00
2017-10-30T06:28:48.876Z,180.00
2017-10-30T06:29:48.871Z,188.00
2017-10-30T06:30:48.866Z,196.00
2017-10-30T06:31:48.859Z,208.00
2017-10-30T06:32:48.851Z,212.00
2017-10-30T06:33:48.846Z,224.00
2017-10-30T06:34:48.838Z,244.00
2017-10-30T06:35:48.833Z,252.00
2017-10-30T06:36:48.825Z,256.00
2017-10-30T06:37:48.821Z,264.00
2017-10-30T06:38:48.814Z,276.00
2017-10-30T06:39:48.808Z,292.00
2017-10-30T06:40:48.814Z,316.00
2017-10-30T06:41:48.795Z,340.00
2017-10-30T06:42:48.788Z,368.00
2017-10-30T06:43:48.782Z,380.00
2017-10-30T06:44:48.774Z,364.00
2017-10-30T06:45:48.770Z,332.00
2017-10-30T06:46:48.764Z,300.00
2017-10-30T06:47:48.758Z,264.00
2017-10-30T06:48:48.750Z,260.00
2017-10-30T06:49:48.745Z,324.00
2017-10-30T06:50:48.739Z,428.00
2017-10-30T06:51:48.732Z,532.00
2017-10-30T06:52:48.725Z,600.00
2017-10-30T06:53:48.720Z,640.00
2017-10-30T06:54:48.714Z,676.00
2017-10-30T06:55:48.709Z,744.00
2017-10-30T06:56:48.700Z,788.00
2017-10-30T06:57:48.695Z,804.00
2017-10-30T06:58:48.690Z,828.00
2017-10-30T06:59:48.685Z,896.00
2017-10-30T07:00:48.676Z,1044.00
2017-10-30T07:01:48.672Z,1256.00
2017-10-30T07:02:48.666Z,1420.00
2017-10-30T07:03:48.660Z,1548.00
2017-10-30T07:04:48.658Z,1696.00
2017-10-30T07:05:48.655Z,1776.00
2017-10-30T07:06:48.641Z,1796.00
2017-10-30T07:07:48.635Z,1804.00
2017-10-30T07:08:48.631Z,1740.00
2017-10-30T07:09:48.623Z,1748.00
2017-10-30T07:10:48.616Z,1688.00
2017-10-30T07:11:48.612Z,1692.00
2017-10-30T07:12:48.604Z,1600.00
2017-10-30T07:13:48.598Z,1464.00
2017-10-30T07:14:48.594Z,1380.00
2017-10-30T07:15:48.586Z,1420.00
2017-10-30T07:16:48.581Z,1452.00
2017-10-30T07:17:48.574Z,1648.00
2017-10-30T07:18:48.569Z,1832.00
2017-10-30T07:19:48.568Z,1824.00
2017-10-30T07:20:48.557Z,1688.00
2017-10-30T07:21:48.550Z,1588.00
2017-10-30T07:22:48.545Z,1664.00
2017-10-30T07:23:48.539Z,1740.00
2017-10-30T07:24:48.533Z,1836.00
2017-10-30T07:25:48.531Z,1972.00
2017-10-30T07:26:48.522Z,2036.00
2017-10-30T07:27:48.518Z,1928.00
2017-10-30T07:28:48.512Z,1832.00
2017-10-30T07:29:48.506Z,1892.00
2017-10-30T07:30:48.499Z,2028.00
2017-10-30T07:31:48.497Z,2140.00
2017-10-30T07:32:48.488Z,2204.00
2017-10-30T07:33:48.482Z,2240.00
2017-10-30T07:34:48.475Z,2496.00
2017-10-30T07:35:48.471Z,2932.00
2017-10-30T07:36:48.467Z,3192.00
2017-10-30T07:37:48.457Z,2992.00
2017-10-30T07:38:48.454Z,2576.00
2017-10-30T07:39:48.446Z,2304.00
2017-10-30T07:40:48.441Z,2236.00
2017-10-30T07:41:48.436Z,2344.00
2017-10-30T07:42:48.432Z,2564.00
2017-10-30T07:43:48.425Z,2800.00
2017-10-30T07:44:48.419Z,3184.00
2017-10-30T07:45:48.414Z,3184.00
2017-10-30T07:46:48.409Z,3044.00
2017-10-30T07:47:48.404Z,2908.00
2017-10-30T07:48:48.396Z,2760.00
2017-10-30T07:49:48.391Z,2780.00
2017-10-30T07:50:48.387Z,2740.00
2017-10-30T07:51:48.380Z,2524.00
2017-10-30T07:52:48.375Z,2532.00
2017-10-30T07:53:48.369Z,2744.00
2017-10-30T07:54:48.364Z,3116.00
2017-10-30T07:55:48.359Z,3680.00
2017-10-30T07:56:48.376Z,4160.00
2017-10-30T07:57:48.348Z,4312.00
2017-10-30T07:58:48.343Z,4224.00
2017-10-30T07:59:48.341Z,4048.00
2017-10-30T08:00:48.334Z,3932.00
2017-10-30T08:01:48.326Z,4564.00
2017-10-30T08:02:48.320Z,4488.00
2017-10-30T08:03:48.315Z,4284.00
2017-10-30T08:04:48.309Z,4260.00
2017-10-30T08:05:48.304Z,4432.00
2017-10-30T08:06:48.300Z,4616.00
2017-10-30T08:07:48.295Z,4848.00
2017-10-30T08:08:48.289Z,4860.00
2017-10-30T08:09:48.283Z,4568.00
2017-10-30T08:10:48.281Z,4452.00
2017-10-30T08:11:48.272Z,4248.00
2017-10-30T08:12:48.268Z,3792.00
2017-10-30T08:13:48.262Z,3316.00
2017-10-30T08:14:48.266Z,3276.00
2017-10-30T08:15:48.252Z,3516.00
2017-10-30T08:16:48.246Z,3836.00
2017-10-30T08:17:48.241Z,4220.00
2017-10-30T08:18:48.238Z,4448.00
2017-10-30T08:19:48.231Z,4716.00
2017-10-30T08:20:48.227Z,5288.00
2017-10-30T08:21:48.223Z,5480.00
2017-10-30T08:22:48.218Z,5308.00
2017-10-30T08:23:48.213Z,5264.00
2017-10-30T08:24:48.207Z,5452.00
2017-10-30T08:25:48.201Z,5692.00
2017-10-30T08:26:48.198Z,5704.00
2017-10-30T08:27:48.193Z,5364.00
2017-10-30T08:28:48.190Z,4780.00
2017-10-30T08:29:48.184Z,4540.00
2017-10-30T08:30:48.178Z,4772.00
2017-10-30T08:31:48.174Z,5096.00
2017-10-30T08:32:48.168Z,5308.00
2017-10-30T08:33:48.164Z,5456.00
2017-10-30T08:34:48.160Z,5232.00
2017-10-30T08:35:48.154Z,4712.00
2017-10-30T08:36:48.153Z,4240.00
2017-10-30T08:37:48.145Z,3984.00
2017-10-30T08:38:48.142Z,4008.00
2017-10-30T08:39:48.137Z,4136.00
2017-10-30T08:40:48.133Z,4192.00
2017-10-30T08:41:48.131Z,4336.00
2017-10-30T08:42:48.123Z,4088.00
2017-10-30T08:43:48.120Z,3492.00
2017-10-30T08:44:48.113Z,2976.00
2017-10-30T08:45:48.109Z,2708.00
2017-10-30T08:46:48.106Z,2792.00
2017-10-30T08:47:48.103Z,3036.00
2017-10-30T08:48:48.097Z,3200.00
2017-10-30T08:49:48.092Z,3336.00
2017-10-30T08:50:48.088Z,3388.00
2017-10-30T08:51:48.084Z,3332.00
2017-10-30T08:52:48.083Z,3300.00
2017-10-30T08:53:48.075Z,3316.00
2017-10-30T08:54:48.074Z,3332.00
2017-10-30T08:55:48.066Z,3704.00
2017-10-30T08:56:48.062Z,4208.00
2017-10-30T08:57:48.057Z,5588.00
2017-10-30T08:58:48.054Z,5940.00
2017-10-30T08:59:48.051Z,5676.00
2017-10-30T09:00:48.045Z,5684.00
2017-10-30T09:01:48.044Z,5788.00
2017-10-30T09:02:48.036Z,5520.00
2017-10-30T09:03:48.031Z,5900.00
2017-10-30T09:04:48.027Z,6168.00
2017-10-30T09:05:48.024Z,6292.00
2017-10-30T09:06:48.018Z,6132.00
2017-10-30T09:07:48.015Z,6188.00
2017-10-30T09:08:48.010Z,6616.00
2017-10-30T09:09:48.006Z,5996.00
2017-10-30T09:10:48.002Z,6432.00
2017-10-30T09:11:47.999Z,5692.00
2017-10-30T09:12:47.993Z,5140.00
2017-10-30T09:13:47.992Z,5324.00
2017-10-30T09:14:47.993Z,5624.00
2017-10-30T09:15:47.984Z,5508.00
2017-10-30T09:16:47.977Z,5512.00
2017-10-30T09:17:47.975Z,6124.00
2017-10-30T09:18:47.971Z,5680.00
2017-10-30T09:19:47.967Z,5544.00
2017-10-30T09:20:47.962Z,5980.00
2017-10-30T09:21:47.964Z,5704.00
2017-10-30T09:22:47.955Z,6364.00
2017-10-30T09:23:47.952Z,6292.00
2017-10-30T09:24:47.946Z,5144.00
2017-10-30T09:25:47.944Z,5220.00
2017-10-30T09:26:47.941Z,4892.00
2017-10-30T09:27:47.936Z,5800.00
2017-10-30T09:28:47.931Z,5920.00
2017-10-30T09:29:47.927Z,5048.00
2017-10-30T09:30:47.924Z,5416.00
2017-10-30T09:31:47.926Z,6296.00
2017-10-30T09:32:47.918Z,6840.00
2017-10-30T09:33:47.913Z,8292.00
2017-10-30T09:34:47.910Z,8976.00
2017-10-30T09:35:47.906Z,9064.00
2017-10-30T09:36:47.909Z,9904.00
2017-10-30T09:37:47.900Z,8500.00
2017-10-30T09:38:47.896Z,8676.00
2017-10-30T09:39:47.891Z,15104.00
2017-10-30T09:40:47.888Z,45984.00
2017-10-30T09:41:47.889Z,51744.00
2017-10-30T09:42:47.882Z,39744.00
2017-10-30T09:43:47.880Z,60096.00
2017-10-30T09:44:47.877Z,64352.00
2017-10-30T09:45:47.876Z,61408.00
2017-10-30T09:46:47.873Z,65728.00
2017-10-30T09:47:47.871Z,68832.00
2017-10-30T09:48:47.868Z,63776.00
2017-10-30T09:49:47.868Z,63104.00
2017-10-30T09:50:47.883Z,65312.00
2017-10-30T09:51:47.867Z,65440.00
2017-10-30T09:52:47.866Z,64544.00
2017-10-30T09:53:47.865Z,59776.00
2017-10-30T09:54:47.867Z,43840.00
2017-10-30T09:55:47.869Z,34112.00
2017-10-30T09:56:47.872Z,21952.00
2017-10-30T09:57:47.871Z,15796.00
2017-10-30T09:58:47.875Z,15016.00
2017-10-30T09:59:47.874Z,14052.00
2017-10-30T10:00:47.876Z,41056.00
2017-10-30T10:01:47.879Z,43392.00
2017-10-30T10:02:47.882Z,39904.00
2017-10-30T10:03:47.884Z,31360.00
2017-10-30T10:04:47.888Z,14352.00
2017-10-30T10:05:47.888Z,11088.00
2017-10-30T10:06:47.892Z,14028.00
2017-10-30T10:07:47.894Z,13256.00
2017-10-30T10:08:47.895Z,11660.00
2017-10-30T10:09:47.901Z,12460.00
2017-10-30T10:10:47.902Z,10664.00
2017-10-30T10:11:47.904Z,9908.00
2017-10-30T10:12:47.908Z,8928.00
2017-10-30T10:13:47.910Z,9992.00
2017-10-30T10:14:47.912Z,7716.00
2017-10-30T10:15:47.916Z,6720.00
2017-10-30T10:16:47.918Z,6788.00
2017-10-30T10:17:47.920Z,5676.00
2017-10-30T10:18:47.921Z,5212.00
2017-10-30T10:19:47.925Z,5160.00
2017-10-30T10:20:47.930Z,5612.00
2017-10-30T10:21:47.928Z,5248.00
2017-10-30T10:22:47.929Z,5388.00
2017-10-30T10:23:47.930Z,7440.00
2017-10-30T10:24:47.930Z,6456.00
2017-10-30T10:25:47.932Z,6012.00
2017-10-30T10:26:47.932Z,7568.00
2017-10-30T10:27:47.934Z,7992.00
2017-10-30T10:28:47.934Z,9580.00
2017-10-30T10:29:47.934Z,11252.00
2017-10-30T10:30:47.934Z,11416.00
2017-10-30T10:31:47.935Z,12664.00
2017-10-30T10:32:47.936Z,9880.00
2017-10-30T10:33:47.936Z,8408.00
2017-10-30T10:34:47.937Z,10136.00
2017-10-30T10:35:47.938Z,8856.00
2017-10-30T10:36:47.937Z,9208.00
2017-10-30T10:37:47.939Z,6376.00
2017-10-30T10:38:47.938Z,5512.00
2017-10-30T10:39:47.940Z,5060.00
2017-10-30T10:40:47.941Z,5088.00
2017-10-30T10:41:47.940Z,5116.00
2017-10-30T10:42:47.946Z,5628.00
2017-10-30T10:43:47.942Z,6168.00
2017-10-30T10:44:47.941Z,6220.00
2017-10-30T10:45:47.942Z,6288.00
2017-10-30T10:46:47.945Z,7320.00
2017-10-30T10:47:47.944Z,6284.00
2017-10-30T10:48:47.942Z,5872.00
2017-10-30T10:49:47.944Z,5544.00
2017-10-30T10:50:47.943Z,6136.00
2017-10-30T10:51:47.944Z,5424.00
2017-10-30T10:52:47.943Z,4124.00
2017-10-30T10:53:47.942Z,5192.00
2017-10-30T10:54:47.942Z,4696.00
2017-10-30T10:55:47.940Z,4612.00
2017-10-30T10:56:47.946Z,4600.00
2017-10-30T10:57:47.940Z,4512.00
2017-10-30T10:58:47.938Z,4492.00
2017-10-30T10:59:47.938Z,3948.00
2017-10-30T11:00:47.940Z,4212.00
2017-10-30T11:01:47.936Z,4472.00
2017-10-30T11:02:47.935Z,4412.00
2017-10-30T11:03:47.935Z,4388.00
2017-10-30T11:04:47.933Z,4620.00
2017-10-30T11:05:47.932Z,4544.00
2017-10-30T11:06:47.931Z,4472.00
2017-10-30T11:07:47.931Z,4580.00
2017-10-30T11:08:47.929Z,4572.00
2017-10-30T11:09:47.928Z,4504.00
2017-10-30T11:10:47.926Z,4576.00
2017-10-30T11:11:47.929Z,4680.00
2017-10-30T11:12:47.923Z,4812.00
2017-10-30T11:13:47.934Z,5108.00
2017-10-30T11:14:47.919Z,5172.00
2017-10-30T11:15:47.920Z,4984.00
2017-10-30T11:16:47.918Z,5008.00
2017-10-30T11:17:47.915Z,5316.00
2017-10-30T11:18:47.915Z,5324.00
2017-10-30T11:19:47.916Z,5336.00
2017-10-30T11:20:47.911Z,5388.00
2017-10-30T11:21:47.908Z,4716.00
2017-10-30T11:22:47.907Z,5068.00
2017-10-30T11:23:47.906Z,5464.00
2017-10-30T11:24:47.905Z,5780.00
2017-10-30T11:25:47.901Z,5924.00
2017-10-30T11:26:47.900Z,5912.00
2017-10-30T11:27:47.910Z,5788.00
2017-10-30T11:28:47.895Z,5600.00
2017-10-30T11:29:47.895Z,5564.00
2017-10-30T11:30:47.893Z,6268.00
2017-10-30T11:31:47.891Z,7336.00
2017-10-30T11:32:47.890Z,7920.00
2017-10-30T11:33:47.895Z,8360.00
2017-10-30T11:34:47.886Z,7168.00
2017-10-30T11:35:47.884Z,7212.00
2017-10-30T11:36:47.884Z,7220.00
2017-10-30T11:37:47.880Z,8376.00
2017-10-30T11:38:47.878Z,7032.00
2017-10-30T11:39:47.879Z,5340.00
2017-10-30T11:40:47.875Z,3804.00
2017-10-30T11:41:47.873Z,2988.00
2017-10-30T11:42:47.873Z,2672.00
2017-10-30T11:43:47.872Z,2612.00
2017-10-30T11:44:47.870Z,2480.00
2017-10-30T11:45:47.869Z,2460.00
2017-10-30T11:46:47.867Z,2300.00
2017-10-30T11:47:47.865Z,2040.00
2017-10-30T11:48:47.864Z,2092.00
2017-10-30T11:49:47.862Z,2540.00
2017-10-30T11:50:47.861Z,2988.00
2017-10-30T11:51:47.860Z,2920.00
2017-10-30T11:52:47.857Z,2536.00
2017-10-30T11:53:47.861Z,2200.00
2017-10-30T11:54:47.855Z,1952.00
2017-10-30T11:55:47.851Z,1880.00
2017-10-30T11:56:47.848Z,2024.00
2017-10-30T11:57:47.846Z,2076.00
2017-10-30T11:58:47.846Z,1900.00
2017-10-30T11:59:47.845Z,1860.00
2017-10-30T12:00:47.840Z,1912.00
2017-10-30T12:01:47.838Z,1980.00
2017-10-30T12:02:47.836Z,2232.00
2017-10-30T12:03:47.835Z,2480.00
2017-10-30T12:04:47.833Z,2652.00
2017-10-30T12:05:47.829Z,2876.00
2017-10-30T12:06:47.829Z,2936.00
2017-10-30T12:07:47.826Z,2892.00
2017-10-30T12:08:47.824Z,2612.00
2017-10-30T12:09:47.823Z,2256.00
2017-10-30T12:10:47.819Z,2156.00
2017-10-30T12:11:47.818Z,2104.00
2017-10-30T12:12:47.814Z,2096.00
2017-10-30T12:13:47.811Z,2096.00
2017-10-30T12:14:47.809Z,2192.00
2017-10-30T12:15:47.808Z,2476.00
2017-10-30T12:16:47.804Z,2992.00
2017-10-30T12:17:47.802Z,3500.00
2017-10-30T12:18:47.803Z,3992.00
2017-10-30T12:19:47.799Z,4352.00
2017-10-30T12:20:47.794Z,4296.00
2017-10-30T12:21:47.791Z,3972.00
2017-10-30T12:22:47.788Z,3584.00
2017-10-30T12:23:47.787Z,3260.00
2017-10-30T12:24:47.783Z,3016.00
2017-10-30T12:25:47.781Z,2840.00
2017-10-30T12:26:47.782Z,2696.00
2017-10-30T12:27:47.777Z,2544.00
2017-10-30T12:28:47.773Z,2452.00
2017-10-30T12:29:47.774Z,2428.00
2017-10-30T12:30:47.769Z,2500.00
2017-10-30T12:31:47.767Z,2748.00
2017-10-30T12:32:47.763Z,3048.00
2017-10-30T12:33:47.761Z,3408.00
2017-10-30T12:34:47.759Z,3784.00
2017-10-30T12:35:47.757Z,3928.00
2017-10-30T12:36:47.753Z,3916.00
2017-10-30T12:37:47.751Z,3712.00
2017-10-30T12:38:47.750Z,3352.00
2017-10-30T12:39:47.746Z,2892.00